METAR Data
IDs: Format: Raw Decoded Include TAF

Data at: 1037 UTC 26 Sep 2018

KHUF 261010Z 32008KT 10SM -RA BKN007 BKN017 OVC090 17/17 A3002 RMK AO2 CIG 006V012 P0001 T01720167
KHUF 260956Z 33007KT 10SM -RA FEW009 BKN016 OVC090 18/17 A3001 RMK AO2 P0000 T01780167
KHUF 260953Z 33007KT 10SM -RA FEW010 SCT016 OVC090 18/17 A3001 RMK AO2 RAB32 SLP157 P0000 T01780167
KHUF 260901Z 31008G16KT 10SM SCT024 OVC060 18/16 A3000 RMK AO2 T01830161
KHUF 260853Z 31009G14KT 10SM BKN024 OVC065 18/16 A3000 RMK AO2 SLP154 T01830161 53018
KHUF 260806Z 32011G19KT 10SM SCT013 OVC020 19/17 A2997 RMK AO2 T01890172
KHUF 260753Z 30011G18KT 10SM FEW010 BKN014 OVC023 20/18 A2997 RMK AO2 SLP145 T02000183
KHUF 260653Z 29004KT 10SM BKN023 BKN049 21/19 A2997 RMK AO2 SLP144 T02060194
KHUF 260621Z 31006KT 10SM SCT010 21/20 A2995 RMK AO2 T02110200
KHUF 260604Z 30006KT 10SM BKN010 22/21 A2995 RMK AO2 CIG 009V014 T02170206
KHUF 260553Z 26005KT 10SM SCT010 BKN070 21/21 A2995 RMK AO2 SLP136 P0001 60001 T02110206 10239 20211 51006
KHUF 260512Z 24005KT 10SM SCT016 BKN046 OVC080 22/21 A2993 RMK AO2 T02220206
KHUF 260453Z 24005KT 10SM BKN016 BKN021 OVC085 22/21 A2994 RMK AO2 RAB33E46 SLP134 P0000 T02220206 402670222
KHUF 260450Z 25005KT 10SM SCT016 BKN021 OVC090 22/21 A2994 RMK AO2 RAB33E46 P0000
KHUF 260353Z 22005KT 10SM BKN070 OVC100 23/21 A2993 RMK AO2 SLP130 T02280211
KHUF 260253Z 22005KT 10SM FEW010 OVC100 23/22 A2991 RMK AO2 RAB12E21 SLP124 P0000 60000 T02330217 53008
KHUF 260234Z 23003KT 10SM SCT010 SCT015 OVC110 23/22 A2991 RMK AO2 LTG DSNT NE RAB12E21 P0000 T02330222
KHUF 260226Z 20006KT 10SM BKN010 BKN013 OVC110 23/22 A2991 RMK AO2 LTG DSNT NE RAB12E21 P0000 T02330222
KHUF 260153Z 18006KT 10SM FEW015 BKN026 23/22 A2990 RMK AO2 LTG DSNT SE SLP121 T02330222
KHUF 260053Z 18006KT 10SM FEW033 SCT055 SCT070 23/22 A2989 RMK AO2 LTG DSNT N SLP118 T02330217
KHUF 252353Z 18008KT 10SM CLR 24/22 A2989 RMK AO2 SLP116 60000 T02390222 10267 20239 53005
KHUF 252253Z 19006KT 10SM SCT095 24/22 A2988 RMK AO2 RAE28 SLP113 P0000 T02390222
KHUF 252153Z 18010KT 10SM -RA FEW024 BKN044 OVC075 26/22 A2987 RMK AO2 RAB52 SLP110 P0000 T02560217
KHUF 252053Z 20012G17KT 10SM FEW027 27/21 A2987 RMK AO2 SLP110 T02670211 58018
KHUF 251953Z 20014KT 10SM SCT022 SCT027 BKN032 26/22 A2990 RMK AO2 SLP118 T02610217
KHUF 251943Z 19014KT 10SM FEW016 SCT025 BKN031 26/22 A2990 RMK AO2 T02610217
KHUF 251926Z 21013KT 10SM FEW014 BKN019 OVC033 25/22 A2991 RMK AO2 T02500217
KHUF 251853Z 19011G16KT 10SM FEW009 BKN014 OVC019 24/23 A2991 RMK AO2 SLP124 T02440228
KHUF 251843Z 19008KT 10SM SCT009 BKN014 OVC019 24/22 A2991 RMK AO2 T02440222
KHUF 251821Z 15006KT 10SM SCT009 OVC017 24/22 A2992 RMK AO2 T02390222
KHUF 251753Z 14005KT 10SM SCT011 BKN022 OVC031 24/22 A2993 RMK AO2 RAB26E37 SLP129 P0000 60023 T02390217 10244 20222 58018
KHUF 251730Z 11005KT 10SM -RA SCT011 BKN020 OVC040 24/23 A2993 RMK AO2 RAB26 P0000 T02440228
KHUF 251653Z 16005KT 10SM SCT008 BKN012 OVC016 23/22 A2996 RMK AO2 RAB02E40 SLP139 P0008 T02330222
KHUF 251647Z 16004KT 10SM SCT007 BKN012 OVC018 23/22 A2996 RMK AO2 LTG DSNT SE RAB02E40 P0008
KHUF 251635Z 15004KT 10SM -RA SCT010 BKN018 OVC090 23/22 A2996 RMK AO2 LTG DSNT SE RAB02 P0008 T02330222
KHUF 251624Z 17006KT 3SM R05/3000VP6000FT -RA BR BKN007 BKN015 OVC022 23/22 A2997 RMK AO2 LTG DSNT SE AND S RAB02 P0007 T02280222
KHUF 251615Z 16006KT 1 3/4SM R05/3000VP6000FT +RA BR BKN007 OVC015 23/22 A2997 RMK AO2 LTG DSNT S RAB02 P0007 T02280222
KHUF 251553Z 20005KT 10SM BKN008 OVC018 23/22 A2997 RMK AO2 RAE37 CIG 004V011 SLP143 P0000 T02330222
KHUF 251457Z 19007KT 7SM -RA BKN008 OVC014 23/22 A2998 RMK AO2 LTG DSNT N AND NE P0000 T02280217
KHUF 251450Z 19008KT 6SM -RA BR SCT008 OVC014 23/22 A2998 RMK AO2 LTG DSNT N AND NE TSB22E37 SLP148 P0005 60015 T02280217 53007
KHUF 251449Z 19008KT 6SM -RA BR SCT008 OVC014 23/22 A2998 RMK AO2 LTG DSNT N AND NE TSB22E37 P0005
KHUF 251443Z 19008KT 6SM -RA BR SCT010 OVC017 23/22 A2998 RMK AO2 LTG DSNT N AND NE TSB22E37 P0004 T02280217
KHUF 251428Z 19010KT 8SM -TSRA SCT008 OVC017 23/22 A2998 RMK AO2 LTG DSNT N AND NE TSB22 P0003 T02280217
KHUF 251421Z 19010KT 7SM VCTS -RA SCT008 BKN017 OVC100 23/22 A2997 RMK AO2 LTG DSNT NW-NE P0002 T02280217
KHUF 251353Z 19013G21KT 3SM VCTS RA BR BKN008 BKN040 OVC075 22/22 A2995 RMK AO2 LTG DSNT NW-E SLP137 P0010 T02220217
KHUF 251334Z 17010KT 2SM VCTS +RA BR BKN005 OVC010 22/22 A2995 RMK AO2 LTG DSNT S-NW P0005 T02220217
KHUF 251321Z 16009KT 1 1/2SM VCTS -RA BR OVC005 22/22 A2995 RMK AO2 LTG DSNT SE-W P0001 T02220217
KHUF 251307Z 19010KT 2 1/2SM -RA BR BKN005 OVC016 22/22 A2997 RMK AO2 LTG DSNT S AND SW P0000 T02220217
KHUF 251253Z 19009KT 1 1/2SM R05/6000VP6000FT -RA BR OVC005 22/22 A2996 RMK AO2 LTG DSNT SW AND W RAB53 SLP142 P0000 T02220217
KHUF 251249Z 19010KT 1 3/4SM R05/6000VP6000FT BR OVC005 22/22 A2997 RMK AO2 LTG DSNT SW AND W
KHUF 251153Z 18007KT 5SM BR OVC007 23/22 A2996 RMK AO2 SLP141 60036 70037 T02280217 10228 20222 51004
KHUF 251053Z 19010KT 6SM BR OVC006 23/22 A2995 RMK AO2 SLP139 T02280217
KHUF 250953Z 19010KT 7SM OVC007 23/22 A2996 RMK AO2 LTG DSNT N AND NW RAB43E53 CIG 006V010 SLP140 P0000 T02280217
KHUF 250853Z 20009KT 9SM OVC008 23/22 A2995 RMK AO2 RAE47 CIG 005V010 SLP137 P0002 60036 T02280217 53003
KHUF 250753Z 20013G20KT 5SM -RA BR BKN009 BKN013 OVC042 23/22 A2994 RMK AO2 LTG DSNT NE RAE28B40 TSE07B23E38 SLP134 P0009 T02280217
KHUF 250748Z 20011G19KT 8SM -RA SCT007 BKN013 OVC031 23/22 A2994 RMK AO2 LTG DSNT NE RAE28B40 TSE07B23E38 P0008
KHUF 250739Z 21013KT 9SM VCTS SCT009 BKN013 BKN026 23/22 A2994 RMK AO2 LTG DSNT NE AND E RAE28 TSE07B23E38 P0008 T02280217
KHUF 250735Z 21011KT 10SM TS BKN009 BKN026 OVC031 23/22 A2994 RMK AO2 LTG DSNT NE AND E RAE28 TSE07B23 P0008 T02280217
KHUF 250723Z 21011KT 3SM R05/6000VP6000FT -TSRA BR FEW007 BKN010 OVC026 23/22 A2994 RMK AO2 LTG DSNT NW-E TSE07B23 P0008 T02280217
KHUF 250718Z 19009G19KT 2 1/2SM R05/6000VP6000FT VCTS +RA BR BKN010 BKN015 OVC030 23/22 A2994 RMK AO2 LTG DSNT NW-E TSE07 P0008 T02280217
KHUF 250715Z 20011KT 4SM R05/6000VP6000FT VCTS RA BR BKN008 BKN015 OVC020 23/22 A2995 RMK AO2 LTG DSNT NW-E TSE07 P0006 T02280217
KHUF 250708Z 19011KT 8SM VCTS -RA FEW005 BKN010 OVC027 23/22 A2995 RMK AO2 LTG DSNT N-E TSE07 P0001 T02280217
KHUF 250705Z 19009KT 6SM -TSRA BR BKN008 BKN015 OVC025 22/22 A2995 RMK AO2 LTG DSNT N-E P0001 T02220217
KHUF 250656Z 20007KT 3SM R05/5000VP6000FT -TSRA BR SCT008 BKN017 OVC027 22/22 A2994 RMK AO2 LTG DSNT NW-E P0000 T02220217
KHUF 250653Z 20006KT 1 1/2SM R05/4500VP6000FT -TSRA BR FEW005 BKN008 OVC023 22/22 A2994 RMK AO2 LTG DSNT NW-E RAB00 TSB43 SLP134 P0025 T02220217
KHUF 250644Z 19008KT 2 1/2SM TSRA BR OVC008 22/22 A2994 RMK AO2 LTG DSNT ALQDS RAB00 TSB43 CIG 004V011 P0016 T02220217
KHUF 250626Z 17005KT 9SM VCTS -RA BKN008 OVC013 22/22 A2995 RMK AO2 LTG DSNT S-NW RAB00 P0009 T02220217
KHUF 250618Z 17006KT 10SM -RA BKN008 OVC013 22/22 A2995 RMK AO2 LTG DSNT SW-NW RAB00 P0009 T02220217
KHUF 250611Z 18007KT 2 1/2SM R05/3000VP6000FT -RA BR BKN008 OVC014 22/22 A2995 RMK AO2 LTG DSNT SW AND W RAB00 P0009 T02220217
KHUF 250553Z 17008KT 10SM OVC008 23/22 A2995 RMK AO2 LTG DSNT SW AND W SLP138 T02280217 10228 20211 58006
KHUF 250519Z 17007KT 10SM BKN008 OVC015 23/22 A2996 RMK AO2 T02280217
KHUF 250510Z 17007KT 10SM FEW008 OVC015 22/22 A2996 RMK AO2 T02220217
KHUF 250453Z 17007KT 10SM BKN011 OVC016 22/21 A2996 RMK AO2 SLP143 T02220211 402280156
KHUF 250434Z 17008KT 10SM BKN012 BKN039 OVC060 22/21 A2996 RMK AO2 T02220211
KHUF 250353Z 18009KT 10SM FEW007 OVC050 22/21 A2997 RMK AO2 SLP145 T02220211
KHUF 250253Z 19005KT 10SM FEW009 OVC033 22/22 A2997 RMK AO2 SLP145 T02220217 51013
KHUF 250230Z 18007KT 8SM FEW008 BKN035 OVC042 22/22 A2997 RMK AO2 T02220217
KHUF 250153Z 17005KT 10SM OVC040 22/21 A2996 RMK AO2 SLP143 T02220211
KHUF 250053Z 15003KT 10SM OVC038 22/21 A2995 RMK AO2 SLP137 T02170211
KHUF 242353Z 14003KT 10SM SCT042 21/21 A2993 RMK AO2 SLP132 T02110206 10228 20211 55004
KHUF 242253Z 13003KT 10SM FEW009 OVC046 22/21 A2993 RMK AO2 SLP132 T02220206